Boca Raton, FL (33431)

8:15 AM EST on February 28, 2015 (GMT -0500)
FAU High WeatherSTEM | Change Station
CLOSE
Current Station
Personal Weather Station
Location: Boca Raton, FL
Elevation: 22 ft
Nearby Weather Stations

Elev 22 ft 26.37 °N, 80.10 °W | Updated 14 minutes ago

Overcast
Overcast
74.9 °F
Feels Like 74 °F
N
5.0
Wind Variable Wind from SE
Gusts 10.0 mph

Today
High -- | Low -- °F
--% Chance of Precip.
Yesterday
High -- | Low -- °F
Precip. -- in
6:45 AM 6:21 PM
Waxing Gibbous, 77% visible
Pressure 30.23 in
Visibility 10.0 miles
Clouds Scattered Clouds 1700 ft
Mostly Cloudy 3400 ft
Heat Index 74 °F
Dew Point 71 °F
Humidity 88%
Rainfall 0.00 in
Snow Depth Not available.
UV 0.6 out of 12
Pollen 6.10 out of 12
Air Quality Not available.
Flu Activity Not available.
METAR KPMP 281253Z 08009KT 10SM SCT017 BKN034 24/21 A3023 RMK AO2 SLP237 T02440206

More Conditions Fewer Conditions

Pressure 30.23 in
Visibility 10.0 miles
Clouds Scattered Clouds 1700 ft
Mostly Cloudy 3400 ft
Heat Index 74 °F
Dew Point 71 °F
Humidity 88%
Rainfall 0.00 in
Snow Depth Not available.
UV 0.6 out of 12
Pollen 6.10 out of 12
Air Quality Not available.
Flu Activity Not available.
METAR KPMP 281253Z 08009KT 10SM SCT017 BKN034 24/21 A3023 RMK AO2 SLP237 T02440206

More Conditions Fewer Conditions

Nowcast | as of 7:03 am EST on February 28, 2015

Isolated to widely scattered showers will impact immediate coastal sections of northeast Miami Dade and southeast Broward counties through the next couple of hours bringing brief periods of heavy downpours across affected coastal communities. An isolated waterspout along with the adjacent coastal waters cannot be ruled out either. Boaters are advised to exercise caution.

×

10-Day Weather Forecast

Almanac

Astronomy

Feb. 28, 2015 Rise Set
Actual Time
Civil Twilight
Nautical Twilight
Astronomical Twilight
Moon
Length of Visible Light
Length of Day
Tomorrow will be .
, % of the Moon is Illuminated

Today's Extremes

State Highs State Lows

Community

WunderPhotos

Upload Photos

1,801,004 photos uploaded!

WunderBlogs® & News

Nearby

Air Quality

  Air Quality AQ Index Pollutant
Not available.

Snow Depth

Station Depth Elevation

Earthquake Activity

City Distance Mag. Time & Date
Minimum magnitude displayed is 2.5.

Coastal Water Temperatures

Place Temperature

Nearby Weather Stations